ADDS METAR Data INFO
IDs: Format: Raw Decoded Include TAF

Data at: 0759 UTC 22 Sep 2017

ETSI 220756Z VRB01KT 4000 BR FEW001 BKN130 08/07 Q1021 GRN GRN BECMG BLU+